createdAt,value
2019-05-13T00:00:48.941Z,79.882812
2019-05-13T00:01:49.079Z,79.986572
2019-05-13T00:02:49.186Z,80.297852
2019-05-13T00:03:49.319Z,80.712891
2019-05-13T00:04:49.444Z,80.92041
2019-05-13T00:05:49.612Z,80.712891
2019-05-13T00:06:54.143Z,80.712891
2019-05-13T00:07:49.805Z,80.81665
2019-05-13T00:08:49.916Z,81.02417
2019-05-13T00:09:50.016Z,81.060791
2019-05-13T00:10:50.129Z,81.060791
2019-05-13T00:11:50.262Z,81.060791
2019-05-13T00:12:50.375Z,80.957031
2019-05-13T00:13:50.476Z,80.749512
2019-05-13T00:14:50.576Z,80.645752
2019-05-13T00:15:51.688Z,80.645752
2019-05-13T00:16:53.636Z,80.749512
2019-05-13T00:17:51.773Z,80.645752
2019-05-13T00:18:52.981Z,80.541992
2019-05-13T00:19:53.188Z,80.645752
2019-05-13T00:20:51.148Z,80.645752
2019-05-13T00:21:54.445Z,80.853271
2019-05-13T00:22:53.801Z,80.889893
2019-05-13T00:23:53.427Z,80.889893
2019-05-13T00:24:54.210Z,80.993652
2019-05-13T00:25:54.500Z,81.201172
2019-05-13T00:26:53.176Z,81.408691
2019-05-13T00:27:53.631Z,81.719971
2019-05-13T00:28:53.400Z,81.82373
2019-05-13T00:29:53.388Z,82.342529
2019-05-13T00:30:54.233Z,82.489014
2019-05-13T00:31:53.963Z,82.489014
2019-05-13T00:32:54.554Z,82.592773
2019-05-13T00:33:53.217Z,82.800293
2019-05-13T00:34:53.378Z,83.007812
2019-05-13T00:35:53.396Z,82.904053
2019-05-13T00:37:07.018Z,83.215332
2019-05-13T00:37:54.313Z,83.111572
2019-05-13T00:38:53.508Z,83.215332
2019-05-13T00:39:54.279Z,83.422852
2019-05-13T00:40:54.479Z,83.526611
2019-05-13T00:41:53.504Z,83.526611
2019-05-13T00:42:54.496Z,83.526611
2019-05-13T00:43:53.685Z,83.526611
2019-05-13T00:44:53.770Z,83.526611
2019-05-13T00:45:53.868Z,83.630371
2019-05-13T00:46:53.985Z,83.630371
2019-05-13T00:47:54.098Z,83.526611
2019-05-13T00:48:54.244Z,83.526611
2019-05-13T00:49:54.307Z,83.526611
2019-05-13T00:50:54.592Z,83.526611
2019-05-13T00:51:54.518Z,83.630371
2019-05-13T00:52:54.607Z,83.666992
2019-05-13T00:53:54.697Z,83.666992
2019-05-13T00:54:54.805Z,83.563232
2019-05-13T00:55:54.910Z,83.563232
2019-05-13T00:56:55.047Z,83.666992
2019-05-13T00:57:55.151Z,83.978271
2019-05-13T00:58:55.261Z,84.393311
2019-05-13T00:59:55.360Z,84.393311
2019-05-13T01:00:55.457Z,84.393311
2019-05-13T01:01:55.576Z,84.393311
2019-05-13T01:02:55.671Z,84.70459
2019-05-13T01:03:55.784Z,84.70459
2019-05-13T01:04:55.902Z,85.05249
2019-05-13T01:05:56.022Z,85.05249
2019-05-13T01:06:56.194Z,84.94873
2019-05-13T01:07:56.309Z,85.05249
2019-05-13T01:08:56.411Z,85.15625
2019-05-13T01:09:56.519Z,85.36377
2019-05-13T01:10:56.620Z,85.467529
2019-05-13T01:11:56.750Z,85.36377
2019-05-13T01:12:56.870Z,85.26001
2019-05-13T01:13:56.963Z,85.26001
2019-05-13T01:14:57.056Z,85.26001
2019-05-13T01:15:57.172Z,85.36377
2019-05-13T01:16:57.273Z,85.510254
2019-05-13T01:17:57.427Z,85.510254
2019-05-13T01:18:57.541Z,85.406494
2019-05-13T01:19:57.649Z,85.302734
2019-05-13T01:20:57.753Z,85.095215
2019-05-13T01:21:57.864Z,85.095215
2019-05-13T01:22:58.108Z,85.095215
2019-05-13T01:23:58.050Z,85.198975
2019-05-13T01:24:58.156Z,85.198975
2019-05-13T01:25:58.261Z,85.198975
2019-05-13T01:26:58.355Z,85.198975
2019-05-13T01:27:58.507Z,85.198975
2019-05-13T01:28:58.614Z,85.198975
2019-05-13T01:29:58.718Z,85.095215
2019-05-13T01:30:58.845Z,85.095215
2019-05-13T01:31:59.955Z,85.095215
2019-05-13T01:32:59.094Z,85.198975
2019-05-13T01:33:59.144Z,85.198975
2019-05-13T01:34:59.261Z,85.302734
2019-05-13T01:35:59.356Z,85.302734
2019-05-13T01:36:59.515Z,85.406494
2019-05-13T01:37:59.628Z,85.406494
2019-05-13T01:38:59.619Z,85.302734
2019-05-13T01:39:59.752Z,85.198975
2019-05-13T01:40:59.894Z,85.095215
2019-05-13T01:41:59.987Z,84.991455
2019-05-13T01:43:00.097Z,84.924316
2019-05-13T01:44:00.139Z,84.924316
2019-05-13T01:45:00.248Z,84.924316
2019-05-13T01:46:00.376Z,85.028076
2019-05-13T01:47:00.460Z,85.028076
2019-05-13T01:48:00.574Z,85.131836
2019-05-13T01:49:00.728Z,85.131836
2019-05-13T01:50:00.679Z,85.131836
2019-05-13T01:51:00.780Z,85.168457
2019-05-13T01:52:03.695Z,85.168457
2019-05-13T01:53:04.125Z,85.27832
2019-05-13T01:54:04.104Z,85.48584
2019-05-13T01:55:03.975Z,85.5896
2019-05-13T01:56:03.818Z,85.797119
2019-05-13T01:57:04.326Z,86.004639
2019-05-13T01:58:04.144Z,86.108398
2019-05-13T01:59:03.591Z,86.352539
2019-05-13T02:00:04.645Z,86.352539
2019-05-13T02:01:04.729Z,86.566162
2019-05-13T02:02:03.535Z,86.669922
2019-05-13T02:03:03.816Z,86.773682
2019-05-13T02:04:03.885Z,86.981201
2019-05-13T02:05:03.906Z,86.981201
2019-05-13T02:06:03.715Z,87.188721
2019-05-13T02:07:03.989Z,87.188721
2019-05-13T02:08:04.524Z,87.188721
2019-05-13T02:09:03.927Z,87.084961
2019-05-13T02:10:04.238Z,86.981201
2019-05-13T02:11:04.266Z,86.981201
2019-05-13T02:12:04.779Z,86.981201
2019-05-13T02:13:03.974Z,86.981201
2019-05-13T02:14:05.579Z,86.877441
2019-05-13T02:15:04.362Z,86.877441
2019-05-13T02:16:04.093Z,87.084961
2019-05-13T02:17:04.132Z,87.121582
2019-05-13T02:18:04.028Z,87.225342
2019-05-13T02:19:04.044Z,87.225342
2019-05-13T02:20:03.993Z,87.432861
2019-05-13T02:21:05.472Z,87.432861
2019-05-13T02:22:04.258Z,87.329102
2019-05-13T02:23:04.211Z,87.329102
2019-05-13T02:24:04.414Z,87.329102
2019-05-13T02:25:04.568Z,87.329102
2019-05-13T02:26:04.618Z,87.329102
2019-05-13T02:27:04.402Z,87.536621
2019-05-13T02:28:08.675Z,87.750244
2019-05-13T02:29:04.591Z,87.957764
2019-05-13T02:30:05.729Z,88.061523
2019-05-13T02:31:04.819Z,88.165283
2019-05-13T02:32:05.893Z,88.061523
2019-05-13T02:33:05.012Z,87.957764
2019-05-13T02:34:05.114Z,87.994385
2019-05-13T02:35:05.245Z,88.201904
2019-05-13T02:36:05.343Z,88.415527
2019-05-13T02:37:05.450Z,88.623047
2019-05-13T02:38:19.255Z,88.726807
2019-05-13T02:39:05.615Z,88.830566
2019-05-13T02:40:05.706Z,88.934326
2019-05-13T02:41:05.801Z,89.038086
2019-05-13T02:42:05.895Z,89.141846
2019-05-13T02:43:06.022Z,89.245605
2019-05-13T02:44:06.086Z,89.141846
2019-05-13T02:45:06.229Z,89.141846
2019-05-13T02:46:06.333Z,89.038086
2019-05-13T02:47:07.417Z,88.934326
2019-05-13T02:48:06.524Z,88.830566
2019-05-13T02:49:06.629Z,88.726807
2019-05-13T02:50:06.751Z,88.726807
2019-05-13T02:51:06.846Z,88.623047
2019-05-13T02:52:06.966Z,88.519287
2019-05-13T02:53:07.077Z,88.519287
2019-05-13T02:54:07.174Z,88.519287
2019-05-13T02:55:07.298Z,88.519287
2019-05-13T02:56:07.246Z,88.519287
2019-05-13T02:57:07.343Z,88.519287
2019-05-13T02:58:07.435Z,88.415527
2019-05-13T02:59:07.548Z,88.348389
2019-05-13T03:00:07.640Z,88.244629
2019-05-13T03:01:07.794Z,88.244629
2019-05-13T03:02:07.916Z,88.244629
2019-05-13T03:03:08.018Z,88.244629
2019-05-13T03:04:08.241Z,88.140869
2019-05-13T03:05:08.172Z,88.140869
2019-05-13T03:06:08.199Z,88.140869
2019-05-13T03:07:08.300Z,88.037109
2019-05-13T03:08:08.406Z,87.93335
2019-05-13T03:09:08.491Z,87.82959
2019-05-13T03:10:08.637Z,87.72583
2019-05-13T03:11:12.335Z,87.62207
2019-05-13T03:12:12.913Z,87.518311
2019-05-13T03:13:12.601Z,87.554932
2019-05-13T03:14:12.719Z,87.554932
2019-05-13T03:15:12.925Z,87.451172
2019-05-13T03:16:13.079Z,87.554932
2019-05-13T03:17:12.985Z,87.554932
2019-05-13T03:18:13.229Z,87.554932
2019-05-13T03:19:09.622Z,87.554932
2019-05-13T03:20:15.491Z,87.554932
2019-05-13T03:21:12.660Z,87.554932
2019-05-13T03:22:13.393Z,87.658691
2019-05-13T03:23:13.369Z,87.762451
2019-05-13T03:24:13.326Z,87.866211
2019-05-13T03:25:13.041Z,87.866211
2019-05-13T03:26:12.919Z,87.866211
2019-05-13T03:27:12.659Z,87.762451
2019-05-13T03:28:13.382Z,87.762451
2019-05-13T03:29:12.250Z,87.866211
2019-05-13T03:30:16.319Z,88.012695
2019-05-13T03:31:16.541Z,88.116455
2019-05-13T03:32:15.966Z,88.220215
2019-05-13T03:33:18.486Z,88.220215
2019-05-13T03:34:15.456Z,88.220215
2019-05-13T03:35:16.241Z,88.220215
2019-05-13T03:36:16.064Z,88.220215
2019-05-13T03:37:15.268Z,88.220215
2019-05-13T03:38:12.732Z,88.220215
2019-05-13T03:39:14.590Z,88.323975
2019-05-13T03:40:13.284Z,88.323975
2019-05-13T03:41:12.266Z,88.427734
2019-05-13T03:42:12.359Z,88.427734
2019-05-13T03:43:12.786Z,88.531494
2019-05-13T03:44:13.356Z,88.641357
2019-05-13T03:45:12.940Z,88.641357
2019-05-13T03:46:12.126Z,88.641357
2019-05-13T03:47:12.715Z,88.641357
2019-05-13T03:48:12.177Z,88.598633
2019-05-13T03:49:13.657Z,88.745117
2019-05-13T03:50:12.960Z,88.806152
2019-05-13T03:51:13.204Z,88.806152
2019-05-13T03:52:13.410Z,88.702393
2019-05-13T03:53:13.088Z,88.702393
2019-05-13T03:54:12.992Z,88.702393
2019-05-13T03:55:12.976Z,88.702393
2019-05-13T03:56:12.996Z,88.806152
2019-05-13T03:57:12.548Z,88.702393
2019-05-13T03:58:13.199Z,88.702393
2019-05-13T03:59:13.260Z,88.494873
2019-05-13T04:00:13.064Z,88.391113
2019-05-13T04:01:13.266Z,88.391113
2019-05-13T04:02:12.932Z,88.494873
2019-05-13T04:03:13.466Z,88.391113
2019-05-13T04:04:12.848Z,88.391113
2019-05-13T04:05:13.276Z,88.287354
2019-05-13T04:06:13.453Z,88.323975
2019-05-13T04:07:13.121Z,88.323975
2019-05-13T04:08:13.175Z,88.427734
2019-05-13T04:09:22.045Z,88.427734
2019-05-13T04:10:13.331Z,88.531494
2019-05-13T04:11:12.634Z,88.494873
2019-05-13T04:12:13.357Z,88.598633
2019-05-13T04:13:12.562Z,88.598633
2019-05-13T04:14:12.579Z,88.806152
2019-05-13T04:15:12.766Z,89.013672
2019-05-13T04:16:13.503Z,89.117432
2019-05-13T04:17:12.754Z,89.221191
2019-05-13T04:18:13.461Z,89.221191
2019-05-13T04:19:12.539Z,89.324951
2019-05-13T04:20:12.839Z,89.434814
2019-05-13T04:21:13.185Z,89.434814
2019-05-13T04:22:13.135Z,89.538574
2019-05-13T04:23:13.064Z,89.642334
2019-05-13T04:24:12.723Z,89.746094
2019-05-13T04:25:12.938Z,89.849854
2019-05-13T04:26:14.596Z,89.953613
2019-05-13T04:27:13.307Z,90.014648
2019-05-13T04:28:13.580Z,90.118408
2019-05-13T04:29:13.478Z,90.014648
2019-05-13T04:30:13.536Z,90.014648
2019-05-13T04:31:14.349Z,90.014648
2019-05-13T04:32:13.317Z,90.014648
2019-05-13T04:33:14.252Z,90.014648
2019-05-13T04:34:13.268Z,89.978027
2019-05-13T04:35:13.301Z,90.081787
2019-05-13T04:36:13.925Z,90.081787
2019-05-13T04:37:13.599Z,90.185547
2019-05-13T04:38:13.555Z,90.185547
2019-05-13T04:39:13.560Z,90.185547
2019-05-13T04:40:14.656Z,90.081787
2019-05-13T04:41:13.803Z,90.081787
2019-05-13T04:42:13.935Z,90.039062
2019-05-13T04:43:14.063Z,90.039062
2019-05-13T04:44:14.114Z,90.142822
2019-05-13T04:45:15.153Z,90.246582
2019-05-13T04:46:14.735Z,90.350342
2019-05-13T04:47:14.451Z,90.411377
2019-05-13T04:48:14.593Z,90.515137
2019-05-13T04:49:14.601Z,90.722656
2019-05-13T04:50:14.764Z,90.826416
2019-05-13T04:51:14.745Z,90.997314
2019-05-13T04:52:14.883Z,91.204834
2019-05-13T04:53:15.033Z,91.412354
2019-05-13T04:54:15.159Z,91.723633
2019-05-13T04:55:15.186Z,91.784668
2019-05-13T04:56:15.194Z,91.888428
2019-05-13T04:57:15.339Z,91.992188
2019-05-13T04:58:15.470Z,92.053223
2019-05-13T04:59:15.514Z,92.156982
2019-05-13T05:00:16.532Z,92.260742
2019-05-13T05:01:15.563Z,92.364502
2019-05-13T05:02:15.692Z,92.529297
2019-05-13T05:03:22.202Z,92.633057
2019-05-13T05:04:23.761Z,92.633057
2019-05-13T05:05:17.094Z,92.694092
2019-05-13T05:06:16.248Z,92.694092
2019-05-13T05:07:16.237Z,92.797852
2019-05-13T05:08:16.376Z,92.657471
2019-05-13T05:09:16.401Z,92.553711
2019-05-13T05:10:28.953Z,92.449951
2019-05-13T05:11:17.555Z,92.449951
2019-05-13T05:12:16.697Z,92.510986
2019-05-13T05:13:16.701Z,92.510986
2019-05-13T05:14:16.891Z,92.407227
2019-05-13T05:15:16.970Z,92.303467
2019-05-13T05:16:16.977Z,92.156982
2019-05-13T05:17:17.054Z,91.949463
2019-05-13T05:18:17.049Z,91.845703
2019-05-13T05:19:17.099Z,91.638184
2019-05-13T05:20:17.102Z,91.430664
2019-05-13T05:21:17.080Z,91.326904
2019-05-13T05:22:17.116Z,91.07666
2019-05-13T05:23:17.105Z,90.869141
2019-05-13T05:24:17.281Z,90.661621
2019-05-13T05:25:17.306Z,90.661621
2019-05-13T05:26:18.324Z,90.557861
2019-05-13T05:27:18.298Z,90.454102
2019-05-13T05:28:17.437Z,90.350342
2019-05-13T05:29:17.437Z,90.203857
2019-05-13T05:30:17.593Z,90.100098
2019-05-13T05:31:17.582Z,90.100098
2019-05-13T05:32:17.745Z,89.996338
2019-05-13T05:33:17.823Z,89.996338
2019-05-13T05:34:17.978Z,89.752197
2019-05-13T05:35:18.010Z,89.648438
2019-05-13T05:36:17.999Z,89.440918
2019-05-13T05:37:17.998Z,89.337158
2019-05-13T05:38:18.145Z,88.922119
2019-05-13T05:39:18.253Z,88.775635
2019-05-13T05:40:28.871Z,88.671875
2019-05-13T05:41:21.341Z,88.464355
2019-05-13T05:42:18.643Z,88.568115
2019-05-13T05:43:18.639Z,88.635254
2019-05-13T05:44:18.632Z,88.635254
2019-05-13T05:45:18.815Z,88.635254
2019-05-13T05:46:18.982Z,88.48877
2019-05-13T05:47:21.294Z,88.38501
2019-05-13T05:48:22.116Z,87.762451
2019-05-13T05:49:21.313Z,87.457275
2019-05-13T05:50:22.723Z,87.207031
2019-05-13T05:51:22.084Z,87.103271
2019-05-13T05:52:21.228Z,86.895752
2019-05-13T05:53:21.754Z,86.791992
2019-05-13T05:54:21.748Z,86.962891
2019-05-13T05:55:21.330Z,87.06665
2019-05-13T05:56:21.490Z,86.755371
2019-05-13T05:57:22.439Z,86.755371
2019-05-13T05:58:22.549Z,86.712646
2019-05-13T05:59:21.861Z,86.920166
2019-05-13T06:00:21.970Z,86.712646
2019-05-13T06:01:23.302Z,86.260986
2019-05-13T06:02:23.014Z,86.053467
2019-05-13T06:03:21.760Z,85.540771
2019-05-13T06:04:22.109Z,84.362793
2019-05-13T06:05:21.329Z,84.265137
2019-05-13T06:06:22.689Z,84.161377
2019-05-13T06:07:21.997Z,83.746338
2019-05-13T06:08:22.161Z,83.911133
2019-05-13T06:09:22.023Z,84.118652
2019-05-13T06:10:22.518Z,83.911133
2019-05-13T06:11:22.350Z,83.978271
2019-05-13T06:12:21.448Z,83.050537
2019-05-13T06:13:21.500Z,82.434082
2019-05-13T06:14:22.005Z,82.537842
2019-05-13T06:15:22.585Z,82.702637
2019-05-13T06:16:21.856Z,82.086182
2019-05-13T06:17:22.010Z,81.365967
2019-05-13T06:18:22.146Z,80.609131
2019-05-13T06:19:22.475Z,80.706787
2019-05-13T06:20:21.512Z,81.018066
2019-05-13T06:21:21.724Z,80.810547
2019-05-13T06:22:21.821Z,81.225586
2019-05-13T06:23:22.231Z,80.194092
2019-05-13T06:24:24.652Z,80.36499
2019-05-13T06:25:23.236Z,79.846191
2019-05-13T06:26:23.700Z,79.333496
2019-05-13T06:27:22.163Z,79.541016
2019-05-13T06:28:22.171Z,80.01709
2019-05-13T06:29:22.382Z,77.648926
2019-05-13T06:30:22.337Z,77.960205
2019-05-13T06:31:22.478Z,78.271484
2019-05-13T06:32:26.193Z,78.68042
2019-05-13T06:33:22.641Z,78.955078
2019-05-13T06:34:22.635Z,79.260254
2019-05-13T06:35:22.632Z,79.467773
2019-05-13T06:36:22.622Z,79.571533
2019-05-13T06:37:22.662Z,79.016113
2019-05-13T06:38:22.777Z,78.094482
2019-05-13T06:39:22.793Z,77.990723
2019-05-13T06:40:22.961Z,77.581787
2019-05-13T06:41:22.955Z,77.032471
2019-05-13T06:42:23.003Z,77.337646
2019-05-13T06:43:23.015Z,75.488281
2019-05-13T06:44:23.014Z,75.897217
2019-05-13T06:45:23.027Z,76.721191
2019-05-13T06:46:23.017Z,76.68457
2019-05-13T06:47:23.055Z,74.633789
2019-05-13T06:48:24.051Z,74.938965
2019-05-13T06:49:23.204Z,74.737549
2019-05-13T06:50:23.225Z,75.109863
2019-05-13T06:51:23.238Z,75.006104
2019-05-13T06:52:23.313Z,74.597168
2019-05-13T06:53:23.303Z,72.955322
2019-05-13T06:54:23.289Z,72.851562
2019-05-13T06:55:23.322Z,72.650146
2019-05-13T06:56:23.320Z,72.955322
2019-05-13T06:57:23.349Z,72.338867
2019-05-13T06:58:23.340Z,72.30835
2019-05-13T06:59:23.349Z,72.509766
2019-05-13T07:00:23.521Z,71.386719
2019-05-13T07:01:24.503Z,71.899414
2019-05-13T07:02:23.542Z,71.484375
2019-05-13T07:03:23.558Z,72.20459
2019-05-13T07:04:23.725Z,72.717285
2019-05-13T07:05:23.704Z,72.10083
2019-05-13T07:06:27.185Z,71.899414
2019-05-13T07:07:24.027Z,72.10083
2019-05-13T07:08:24.052Z,71.661377
2019-05-13T07:09:24.057Z,71.661377
2019-05-13T07:10:24.057Z,70.837402
2019-05-13T07:11:25.010Z,69.812012
2019-05-13T07:12:24.200Z,70.324707
2019-05-13T07:13:24.238Z,71.453857
2019-05-13T07:14:24.242Z,70.837402
2019-05-13T07:15:24.421Z,69.403076
2019-05-13T07:16:24.392Z,70.428467
2019-05-13T07:17:24.390Z,70.019531
2019-05-13T07:18:24.451Z,70.910645
2019-05-13T07:19:24.434Z,70.599365
2019-05-13T07:20:24.440Z,70.08667
2019-05-13T07:21:24.544Z,70.599365
2019-05-13T07:22:24.548Z,68.927002
2019-05-13T07:23:24.662Z,69.439697
2019-05-13T07:24:24.662Z,68.621826
2019-05-13T07:25:24.657Z,70.330811
2019-05-13T07:26:24.646Z,69.610596
2019-05-13T07:27:24.641Z,68.835449
2019-05-13T07:28:24.657Z,66.18042
2019-05-13T07:29:24.667Z,63.378906
2019-05-13T07:30:24.670Z,61.505127
2019-05-13T07:31:24.669Z,57.635498
2019-05-13T07:32:24.666Z,55.297852
2019-05-13T07:33:24.682Z,55.804443
2019-05-13T07:34:24.953Z,55.932617
2019-05-13T07:35:24.825Z,55.731201
2019-05-13T07:36:25.958Z,54.992676
2019-05-13T07:37:26.105Z,54.02832
2019-05-13T07:38:25.290Z,52.435303
2019-05-13T07:39:25.305Z,53.24707
2019-05-13T07:40:25.458Z,53.851318
2019-05-13T07:41:36.250Z,52.813721
2019-05-13T07:42:26.569Z,52.990723
2019-05-13T07:43:25.581Z,51.855469
2019-05-13T07:44:25.577Z,51.806641
2019-05-13T07:45:25.581Z,49.981689
2019-05-13T07:46:25.562Z,49.780273
2019-05-13T07:47:25.573Z,50.061035
2019-05-13T07:48:27.709Z,50.012207
2019-05-13T07:49:25.596Z,47.741699
2019-05-13T07:50:25.588Z,47.241211
2019-05-13T07:51:26.747Z,47.875977
2019-05-13T07:52:25.744Z,46.020508
2019-05-13T07:53:25.782Z,44.146729
2019-05-13T07:54:25.832Z,42.553711
2019-05-13T07:55:25.827Z,43.096924
2019-05-13T07:56:25.833Z,39.831543
2019-05-13T07:57:25.836Z,39.233398
2019-05-13T07:58:26.018Z,38.647461
2019-05-13T07:59:27.007Z,38.568115
2019-05-13T08:00:26.169Z,39.807129
2019-05-13T08:01:26.183Z,40.490723
2019-05-13T08:02:26.188Z,39.691162
2019-05-13T08:03:26.219Z,39.624023
2019-05-13T08:04:26.842Z,40.209961
2019-05-13T08:05:27.253Z,39.666748
2019-05-13T08:06:26.283Z,38.452148
2019-05-13T08:07:26.467Z,38.128662
2019-05-13T08:08:26.509Z,37.213135
2019-05-13T08:09:26.597Z,38.891602
2019-05-13T08:10:26.518Z,37.658691
2019-05-13T08:11:26.517Z,37.158203
2019-05-13T08:12:27.505Z,36.077881
2019-05-13T08:13:26.503Z,36.376953
2019-05-13T08:14:26.533Z,34.875488
2019-05-13T08:15:26.525Z,36.260986
2019-05-13T08:16:26.546Z,35.906982
2019-05-13T08:17:26.546Z,34.564209
2019-05-13T08:18:27.698Z,34.576416
2019-05-13T08:19:26.867Z,35.095215
2019-05-13T08:20:26.889Z,34.893799
2019-05-13T08:21:26.884Z,34.796143
2019-05-13T08:22:26.890Z,35.906982
2019-05-13T08:23:27.036Z,36.157227
2019-05-13T08:24:27.225Z,37.127686
2019-05-13T08:25:27.216Z,38.604736
2019-05-13T08:26:27.210Z,40.148926
2019-05-13T08:27:34.795Z,39.703369
2019-05-13T08:28:27.507Z,40.50293
2019-05-13T08:29:28.550Z,41.546631
2019-05-13T08:30:27.549Z,43.786621
2019-05-13T08:31:27.585Z,44.213867
2019-05-13T08:32:27.580Z,44.940186
2019-05-13T08:33:27.732Z,46.557617
2019-05-13T08:34:27.770Z,46.105957
2019-05-13T08:35:27.788Z,44.049072
2019-05-13T08:36:27.819Z,43.444824
2019-05-13T08:37:28.959Z,44.250488
2019-05-13T08:38:31.590Z,43.664551
2019-05-13T08:39:33.211Z,44.311523
2019-05-13T08:40:31.680Z,44.049072
2019-05-13T08:41:31.998Z,45.410156
2019-05-13T08:42:29.529Z,45.068359
2019-05-13T08:43:31.600Z,46.807861
2019-05-13T08:44:32.003Z,47.155762
2019-05-13T08:45:31.444Z,49.310303
2019-05-13T08:46:31.978Z,49.334717
2019-05-13T08:47:31.367Z,50.982666
2019-05-13T08:48:32.009Z,51.184082
2019-05-13T08:49:32.199Z,49.969482
2019-05-13T08:50:32.120Z,49.890137
2019-05-13T08:51:32.101Z,52.203369
2019-05-13T08:52:31.311Z,50.170898
2019-05-13T08:53:31.719Z,49.334717
2019-05-13T08:54:32.323Z,49.212646
2019-05-13T08:55:32.125Z,50.604248
2019-05-13T08:56:32.573Z,49.414062
2019-05-13T08:57:31.533Z,49.230957
2019-05-13T08:58:31.981Z,50.170898
2019-05-13T08:59:31.697Z,49.255371
2019-05-13T09:00:31.863Z,47.833252
2019-05-13T09:01:31.879Z,46.716309
2019-05-13T09:02:31.347Z,45.111084
2019-05-13T09:03:32.205Z,45.440674
2019-05-13T09:04:31.537Z,45.056152
2019-05-13T09:05:31.820Z,45.153809
2019-05-13T09:06:31.221Z,47.088623
2019-05-13T09:07:31.994Z,46.051025
2019-05-13T09:08:31.933Z,46.069336
2019-05-13T09:09:31.473Z,47.290039
2019-05-13T09:10:31.857Z,45.483398
2019-05-13T09:11:31.465Z,44.567871
2019-05-13T09:12:35.209Z,45.074463
2019-05-13T09:13:32.946Z,45.788574
2019-05-13T09:14:32.315Z,44.873047
2019-05-13T09:15:31.591Z,45.788574
2019-05-13T09:16:32.092Z,45.709229
2019-05-13T09:17:31.957Z,47.460938
2019-05-13T09:18:32.070Z,47.564697
2019-05-13T09:19:32.481Z,49.194336
2019-05-13T09:20:32.271Z,46.722412
2019-05-13T09:21:31.894Z,47.033691
2019-05-13T09:22:31.906Z,48.254395
2019-05-13T09:23:31.544Z,48.55957
2019-05-13T09:24:37.088Z,49.981689
2019-05-13T09:25:32.096Z,49.578857
2019-05-13T09:26:31.790Z,49.475098
2019-05-13T09:27:31.980Z,50.695801
2019-05-13T09:28:32.433Z,49.475098
2019-05-13T09:29:32.348Z,47.845459
2019-05-13T09:30:31.777Z,49.676514
2019-05-13T09:31:32.472Z,48.55957
2019-05-13T09:32:31.948Z,46.624756
2019-05-13T09:33:32.684Z,45.404053
2019-05-13T09:34:32.906Z,46.31958
2019-05-13T09:35:32.353Z,46.09375
2019-05-13T09:36:32.554Z,45.709229
2019-05-13T09:37:32.521Z,46.112061
2019-05-13T09:38:32.831Z,44.891357
2019-05-13T09:39:32.651Z,44.995117
2019-05-13T09:40:32.518Z,44.384766
2019-05-13T09:41:38.483Z,43.261719
2019-05-13T09:42:47.879Z,43.164062
2019-05-13T09:43:33.602Z,44.995117
2019-05-13T09:44:33.109Z,46.520996
2019-05-13T09:45:32.745Z,47.924805
2019-05-13T09:46:32.918Z,45.788574
2019-05-13T09:47:32.901Z,45.684814
2019-05-13T09:48:33.041Z,46.502686
2019-05-13T09:49:33.398Z,46.398926
2019-05-13T09:50:36.117Z,46.09375
2019-05-13T09:51:33.512Z,45.587158
2019-05-13T09:52:33.524Z,45.892334
2019-05-13T09:53:33.499Z,46.398926
2019-05-13T09:54:33.654Z,47.619629
2019-05-13T09:55:33.815Z,46.502686
2019-05-13T09:56:34.973Z,45.788574
2019-05-13T09:57:34.041Z,45.501709
2019-05-13T09:58:34.047Z,46.520996
2019-05-13T09:59:34.223Z,45.684814
2019-05-13T10:00:34.214Z,44.360352
2019-05-13T10:01:34.214Z,45.892334
2019-05-13T10:02:34.241Z,44.970703
2019-05-13T10:03:34.197Z,43.75
2019-05-13T10:04:35.335Z,42.938232
2019-05-13T10:05:34.491Z,43.652344
2019-05-13T10:06:34.508Z,43.95752
2019-05-13T10:07:34.702Z,43.652344
2019-05-13T10:08:34.694Z,45.257568
2019-05-13T10:09:34.683Z,42.614746
2019-05-13T10:10:34.833Z,43.225098
2019-05-13T10:11:34.822Z,42.816162
2019-05-13T10:12:34.862Z,44.848633
2019-05-13T10:13:34.838Z,41.699219
2019-05-13T10:14:34.843Z,43.225098
2019-05-13T10:15:34.992Z,44.036865
2019-05-13T10:16:36.151Z,42.205811
2019-05-13T10:17:35.154Z,41.491699
2019-05-13T10:18:35.151Z,43.408203
2019-05-13T10:19:35.300Z,43.609619
2019-05-13T10:20:35.335Z,41.778564
2019-05-13T10:21:35.333Z,44.628906
2019-05-13T10:22:35.486Z,44.018555
2019-05-13T10:23:35.518Z,45.214844
2019-05-13T10:24:35.511Z,42.675781
2019-05-13T10:25:35.513Z,45.214844
2019-05-13T10:26:35.531Z,41.436768
2019-05-13T10:27:35.672Z,43.548584
2019-05-13T10:28:35.763Z,41.052246
2019-05-13T10:29:35.748Z,41.015625
2019-05-13T10:30:35.907Z,36.590576
2019-05-13T10:31:36.049Z,37.969971
2019-05-13T10:32:36.207Z,37.597656
2019-05-13T10:33:36.251Z,37.646484
2019-05-13T10:34:36.253Z,34.875488
2019-05-13T10:35:36.247Z,33.538818
2019-05-13T10:36:36.261Z,31.011963
2019-05-13T10:37:36.277Z,30.981445
2019-05-13T10:38:36.456Z,31.536865
2019-05-13T10:39:36.468Z,28.723145
2019-05-13T10:40:36.469Z,27.22168
2019-05-13T10:41:36.474Z,31.311035
2019-05-13T10:42:36.462Z,29.797363
2019-05-13T10:43:39.836Z,29.296875
2019-05-13T10:44:36.477Z,28.68042
2019-05-13T10:45:36.487Z,29.681396
2019-05-13T10:46:36.488Z,28.582764
2019-05-13T10:47:36.644Z,28.283691
2019-05-13T10:48:36.682Z,28.369141
2019-05-13T10:49:36.809Z,28.039551
2019-05-13T10:50:36.812Z,27.716064
2019-05-13T10:51:36.834Z,28.302002
2019-05-13T10:52:36.994Z,27.587891
2019-05-13T10:53:37.009Z,28.881836
2019-05-13T10:54:37.037Z,27.7771
2019-05-13T10:55:37.022Z,26.171875
2019-05-13T10:56:37.069Z,27.661133
2019-05-13T10:57:37.230Z,26.66626
2019-05-13T10:58:37.276Z,25.488281
2019-05-13T10:59:37.265Z,26.580811
2019-05-13T11:00:37.274Z,24.200439
2019-05-13T11:01:37.445Z,25.43335
2019-05-13T11:02:37.594Z,26.245117
2019-05-13T11:03:37.626Z,25.744629
2019-05-13T11:04:37.608Z,27.929688
2019-05-13T11:05:41.153Z,26.806641
2019-05-13T11:06:37.651Z,25.78125
2019-05-13T11:07:37.658Z,24.578857
2019-05-13T11:08:37.684Z,26.654053
2019-05-13T11:09:37.681Z,24.975586
2019-05-13T11:10:37.686Z,24.188232
2019-05-13T11:11:37.685Z,25.097656
2019-05-13T11:12:37.743Z,24.798584
2019-05-13T11:13:51.993Z,26.89209
2019-05-13T11:14:38.740Z,26.293945
2019-05-13T11:15:40.448Z,24.700928
2019-05-13T11:16:38.860Z,25.695801
2019-05-13T11:17:38.964Z,25.189209
2019-05-13T11:18:38.960Z,27.062988
2019-05-13T11:19:38.990Z,25.549316
2019-05-13T11:20:38.007Z,25.732422
2019-05-13T11:21:38.008Z,23.944092
2019-05-13T11:22:39.160Z,24.44458
2019-05-13T11:23:39.152Z,23.55957
2019-05-13T11:24:39.195Z,24.761963
2019-05-13T11:25:41.564Z,22.766113
2019-05-13T11:26:41.644Z,23.956299
2019-05-13T11:27:41.828Z,22.851562